Accueil
METAR-TAF:

METAR-TAF

Aéroports :

Aéroport Châlons-Vatry

Châlons-en-Champagne, France

latitude: 48-46-34N, longitude: 004-11-04E, altitude: 179 m

Observation

Le bulletin a été fait il y a 31 minutes, à 18:30 UTC
Vent 13 kt de est
Température 1°C
Humidité 93%
Pression 1010 hPa
Visibilité: 7000 m

METAR: LFOK 201830Z AUTO 09013KT 7000 NSC 01/00 Q1010 BECMG BKN006

Heure: 20:01 (19:01 UTC)

Prévision

Le bulletin a été fait il y a 2 heures et 1 minutes, à 17:00 UTC
Prévision valable du 20 à 18 UTC au 21 à 18 UTC
Vent 10 kt de est
Visibilité: 8000 m
Nuages fragmentés à une hauteur de 600 ft
Evoluant progressivement
du 20 à 21 UTC au 20 à 24 UTC
Ciel couvert à une hauteur de 400 ft
Evoluant progressivement
du 21 à 04 UTC au 21 à 07 UTC
Vent 10 kt de sud/sud-est

TAF: LFOK 201700Z 2018/2118 09010KT 8000 BKN006 BECMG 2021/2024 OVC004 BECMG 2104/2107 15010KT NSC

Observations et prévisions météorologiques de plus de 4000 aéroports (messages METAR et TAF).

Les stations disponibles sont représentées par des disques jaunes et rouges sur la carte.

Passer la souris dessus pour voir le nom de la station.

Cliquer dessus pour voir les observations et prévisions météorologiques.

Pour changer de carte: cliquez sur les boutons verts avec une croix noire pour zoomer, sur le bouton vert avec un tiret pour effectuer un zoom arrière, ou sur les flèches vertes pour les cartes adjacentes.


METAR-TAF: